< Typhoon 201507 2015 Season Typhoon 201509 >
Typhoon 201508 (KUJIRA)
General InformationTrack Information on Google MapsDetailed Wind InformationForecast History on Google MapsAccess Analytics MapList of All Images || NewsDisaster Info.WeblogTrackbackTyphoon FrontTwiphoonTyphoon Now!Typhoon ImaginationDisaster Info. XMLResourceGoogle EarthGE AnimationAtom FeedGeoJSON
Detalied Best Track (Time Zone = UTC)
Year Month Day Hour Lat. Long. Pressure (hPa) Wind (kt) Class Image Chart
2015 6 19 18 15.0 112.2 1002 0 2 Image Chart
2015 6 20 00 15.0 111.9 1002 0 2 Image Chart
2015 6 20 06 15.1 111.6 1000 0 2 Image Chart
2015 6 20 12 15.2 111.5 998 0 2 Image Chart
2015 6 20 18 15.4 111.4 998 0 2 Image Chart
2015 6 21 00 15.6 111.4 996 35 3 Image Chart
2015 6 21 06 16.4 111.4 990 40 3 Image Chart
2015 6 21 12 16.8 111.6 985 45 3 Image Chart
2015 6 21 18 17.7 111.3 985 45 3 Image Chart
2015 6 22 00 18.1 111.2 985 45 3 Image Chart
2015 6 22 06 18.5 110.9 985 45 3 Image Chart
2015 6 22 12 18.5 110.1 985 45 3 Image Chart
2015 6 22 18 18.7 109.6 990 35 3 Image Chart
2015 6 23 00 19.6 109.1 990 35 3 Image Chart
2015 6 23 06 19.7 108.6 990 40 3 Image Chart
2015 6 23 12 19.8 108.1 990 40 3 Image Chart
2015 6 23 18 20.1 107.5 990 40 3 Image Chart
2015 6 24 00 20.4 107.3 985 45 3 Image Chart
2015 6 24 06 20.7 106.9 990 40 3 Image Chart
2015 6 24 12 21.3 106.6 992 35 3 Image Chart
2015 6 24 18 21.6 106.3 996 0 2 Image Chart
2015 6 25 00 22.4 105.9 998 0 2 Image Chart
Japan Meteorological Agency Best Track Data | Correction Date : 2015-07-17
< Typhoon 201507 2015 Season Typhoon 201509 >

Help